Time,TemperatureF,DewpointF,PressureIn,WindDirection,WindDirectionDegrees,WindSpeedMPH,WindSpeedGustMPH,Humidity,HourlyPrecipIn,Conditions,Clouds,dailyrainin,SoftwareType,DateUTC
2013-05-15 00:01:00,60.0,37.0,30.24,West,271,11.0,23.0,43,0.00,,,0.00,,2013-05-15 00:01:00,
2013-05-15 00:11:00,60.0,37.0,30.24,West,271,11.0,23.0,43,0.00,,,0.00,,2013-05-15 00:11:00,
2013-05-15 00:21:00,59.0,37.0,30.24,WSW,256,6.0,21.0,44,0.00,,,0.00,,2013-05-15 00:21:00,
2013-05-15 00:32:00,60.0,34.0,30.24,ESE,119,6.0,12.0,37,0.00,,,0.00,,2013-05-15 00:32:00,
2013-05-15 00:41:00,60.0,34.0,30.24,ESE,119,6.0,12.0,37,0.00,,,0.00,,2013-05-15 00:41:00,
2013-05-15 00:51:00,60.0,35.0,30.22,SSE,159,12.0,18.0,39,0.00,,,0.00,,2013-05-15 00:51:00,
2013-05-15 01:01:00,60.0,36.0,30.22,SSW,198,11.0,23.0,40,0.00,,,0.00,,2013-05-15 01:01:00,
2013-05-15 01:11:00,60.0,36.0,30.22,SSW,198,11.0,23.0,40,0.00,,,0.00,,2013-05-15 01:11:00,
2013-05-15 01:21:00,60.0,36.0,30.22,ESE,119,6.0,14.0,41,0.00,,,0.00,,2013-05-15 01:21:00,
2013-05-15 01:31:00,60.0,36.0,30.23,SE,145,8.0,16.0,41,0.00,,,0.00,,2013-05-15 01:31:00,
2013-05-15 01:42:00,60.0,36.0,30.23,SE,145,8.0,16.0,41,0.00,,,0.00,,2013-05-15 01:42:00,
2013-05-15 01:52:00,60.0,36.0,30.23,SSE,159,8.0,15.0,41,0.00,,,0.00,,2013-05-15 01:52:00,
2013-05-15 02:01:00,59.0,36.0,30.24,SE,146,7.0,14.0,42,0.00,,,0.00,,2013-05-15 02:01:00,
2013-05-15 02:11:00,59.0,36.0,30.24,SE,146,7.0,14.0,42,0.00,,,0.00,,2013-05-15 02:11:00,
2013-05-15 02:21:00,59.0,36.0,30.24,SSE,163,7.0,14.0,42,0.00,,,0.00,,2013-05-15 02:21:00,
2013-05-15 02:31:00,59.0,37.0,30.24,SSE,162,5.0,8.0,43,0.00,,,0.00,,2013-05-15 02:31:00,
2013-05-15 02:41:00,59.0,37.0,30.24,SSE,162,5.0,8.0,43,0.00,,,0.00,,2013-05-15 02:41:00,
2013-05-15 02:51:00,58.0,36.0,30.25,South,188,2.0,9.0,44,0.00,,,0.00,,2013-05-15 02:51:00,
2013-05-15 03:01:00,58.0,36.0,30.25,SE,146,2.0,9.0,44,0.00,,,0.00,,2013-05-15 03:01:00,
2013-05-15 03:12:00,58.0,36.0,30.25,SE,146,2.0,9.0,44,0.00,,,0.00,,2013-05-15 03:12:00,
2013-05-15 03:21:00,58.0,36.0,30.25,SSE,150,1.0,6.0,44,0.00,,,0.00,,2013-05-15 03:21:00,
2013-05-15 03:33:00,57.0,36.0,30.25,SE,140,2.0,4.0,46,0.00,,,0.00,,2013-05-15 03:33:00,
2013-05-15 03:44:00,57.0,37.0,30.25,SE,140,0.0,2.0,47,0.00,,,0.00,,2013-05-15 03:44:00,
2013-05-15 03:54:00,57.0,37.0,30.25,SE,140,0.0,2.0,47,0.00,,,0.00,,2013-05-15 03:54:00,
2013-05-15 04:03:00,56.0,37.0,30.25,SSE,167,4.0,7.0,48,0.00,,,0.00,,2013-05-15 04:03:00,
2013-05-15 04:12:00,56.0,37.0,30.25,SSE,167,4.0,7.0,48,0.00,,,0.00,,2013-05-15 04:12:00,
2013-05-15 04:23:00,56.0,37.0,30.25,SW,215,5.0,9.0,48,0.00,,,0.00,,2013-05-15 04:23:00,
2013-05-15 04:33:00,56.0,36.0,30.24,SSW,192,7.0,12.0,46,0.00,,,0.00,,2013-05-15 04:33:00,
2013-05-15 04:42:00,56.0,36.0,30.24,SSW,192,7.0,12.0,46,0.00,,,0.00,,2013-05-15 04:42:00,
2013-05-15 04:52:00,57.0,36.0,30.24,SSW,197,5.0,10.0,45,0.00,,,0.00,,2013-05-15 04:52:00,
2013-05-15 05:02:00,56.0,35.0,30.24,South,177,7.0,10.0,45,0.00,,,0.00,,2013-05-15 05:02:00,
2013-05-15 05:11:00,56.0,35.0,30.24,South,177,7.0,10.0,45,0.00,,,0.00,,2013-05-15 05:11:00,
2013-05-15 05:22:00,57.0,36.0,30.24,SSE,147,6.0,15.0,45,0.00,,,0.00,,2013-05-15 05:22:00,
2013-05-15 05:32:00,57.0,36.0,30.24,SE,138,1.0,9.0,45,0.00,,,0.00,,2013-05-15 05:32:00,
2013-05-15 05:42:00,57.0,36.0,30.24,SE,138,1.0,9.0,45,0.00,,,0.00,,2013-05-15 05:42:00,
2013-05-15 05:52:00,56.0,36.0,30.24,SSE,153,1.0,4.0,47,0.00,,,0.00,,2013-05-15 05:52:00,
2013-05-15 06:02:00,54.0,35.0,30.24,SSE,161,3.0,6.0,49,0.00,,,0.00,,2013-05-15 06:02:00,
2013-05-15 06:11:00,54.0,35.0,30.24,SSE,161,3.0,6.0,49,0.00,,,0.00,,2013-05-15 06:11:00,
2013-05-15 06:21:00,53.0,35.0,30.24,South,179,5.0,8.0,51,0.00,,,0.00,,2013-05-15 06:21:00,
2013-05-15 06:31:00,53.0,35.0,30.24,South,171,5.0,12.0,50,0.00,,,0.00,,2013-05-15 06:31:00,
2013-05-15 06:41:00,53.0,35.0,30.24,South,171,5.0,12.0,50,0.00,,,0.00,,2013-05-15 06:41:00,
2013-05-15 06:51:00,54.0,35.0,30.23,South,189,7.0,11.0,49,0.00,,,0.00,,2013-05-15 06:51:00,
2013-05-15 07:01:00,54.0,35.0,30.23,South,188,5.0,12.0,48,0.00,,,0.00,,2013-05-15 07:01:00,
2013-05-15 07:11:00,54.0,35.0,30.23,South,188,5.0,12.0,48,0.00,,,0.00,,2013-05-15 07:11:00,
2013-05-15 07:21:00,55.0,35.0,30.23,SSE,165,7.0,13.0,47,0.00,,,0.00,,2013-05-15 07:21:00,
2013-05-15 07:32:00,55.0,35.0,30.23,SSW,194,6.0,12.0,46,0.00,,,0.00,,2013-05-15 07:32:00,
2013-05-15 07:41:00,55.0,35.0,30.23,SSW,194,6.0,12.0,46,0.00,,,0.00,,2013-05-15 07:41:00,
2013-05-15 07:52:00,55.0,34.0,30.23,SSE,159,8.0,12.0,45,0.00,,,0.00,,2013-05-15 07:52:00,
2013-05-15 08:02:00,55.0,33.0,30.23,South,180,8.0,12.0,44,0.00,,,0.00,,2013-05-15 08:02:00,
2013-05-15 08:12:00,55.0,33.0,30.23,South,180,8.0,12.0,44,0.00,,,0.00,,2013-05-15 08:12:00,
2013-05-15 08:21:00,55.0,34.0,30.23,South,180,5.0,12.0,45,0.00,,,0.00,,2013-05-15 08:21:00,
2013-05-15 08:32:00,55.0,34.0,30.22,SSE,163,6.0,10.0,45,0.00,,,0.00,,2013-05-15 08:32:00,
2013-05-15 08:42:00,55.0,34.0,30.22,SSE,163,6.0,10.0,45,0.00,,,0.00,,2013-05-15 08:42:00,
2013-05-15 08:52:00,55.0,34.0,30.22,SSE,165,5.0,11.0,45,0.00,,,0.00,,2013-05-15 08:52:00,
2013-05-15 09:01:00,54.0,34.0,30.22,South,169,4.0,7.0,46,0.00,,,0.00,,2013-05-15 09:01:00,
2013-05-15 09:11:00,54.0,34.0,30.22,South,169,4.0,7.0,46,0.00,,,0.00,,2013-05-15 09:11:00,
2013-05-15 09:21:00,53.0,34.0,30.22,SSW,193,3.0,5.0,48,0.00,,,0.00,,2013-05-15 09:21:00,
2013-05-15 09:32:00,52.0,34.0,30.22,South,187,2.0,6.0,50,0.00,,,0.00,,2013-05-15 09:32:00,
2013-05-15 09:42:00,52.0,34.0,30.22,South,187,2.0,6.0,50,0.00,,,0.00,,2013-05-15 09:42:00,
2013-05-15 09:53:00,51.0,34.0,30.22,South,182,3.0,6.0,52,0.00,,,0.00,,2013-05-15 09:53:00,
2013-05-15 10:02:00,50.0,33.0,30.22,SSW,213,1.0,5.0,52,0.00,,,0.00,,2013-05-15 10:02:00,
2013-05-15 10:12:00,50.0,33.0,30.22,SSW,213,1.0,5.0,52,0.00,,,0.00,,2013-05-15 10:12:00,
2013-05-15 10:22:00,50.0,34.0,30.22,South,182,4.0,7.0,54,0.00,,,0.00,,2013-05-15 10:22:00,
2013-05-15 10:32:00,50.0,34.0,30.22,South,191,3.0,6.0,54,0.00,,,0.00,,2013-05-15 10:32:00,
2013-05-15 10:42:00,50.0,34.0,30.22,South,191,3.0,6.0,54,0.00,,,0.00,,2013-05-15 10:42:00,
2013-05-15 10:52:00,51.0,34.0,30.22,South,180,5.0,8.0,53,0.00,,,0.00,,2013-05-15 10:52:00,
2013-05-15 11:13:00,51.0,34.0,30.22,SSW,213,5.0,9.0,51,0.00,,,0.00,,2013-05-15 11:13:00,
2013-05-15 11:23:00,51.0,34.0,30.22,SSW,196,4.0,5.0,52,0.00,,,0.00,,2013-05-15 11:23:00,
2013-05-15 11:33:00,51.0,34.0,30.22,SSE,166,5.0,7.0,52,0.00,,,0.00,,2013-05-15 11:33:00,
2013-05-15 11:43:00,51.0,34.0,30.22,SSE,166,5.0,7.0,52,0.00,,,0.00,,2013-05-15 11:43:00,
2013-05-15 11:53:00,52.0,34.0,30.22,WSW,253,5.0,9.0,50,0.00,,,0.00,,2013-05-15 11:53:00,
2013-05-15 12:12:00,52.0,34.0,30.22,SW,233,3.0,7.0,50,0.00,,,0.00,,2013-05-15 12:12:00,
2013-05-15 12:23:00,52.0,34.0,30.22,SSW,196,6.0,9.0,50,0.00,,,0.00,,2013-05-15 12:23:00,
2013-05-15 12:34:00,52.0,34.0,30.22,NW,317,0.0,6.0,50,0.00,,,0.00,,2013-05-15 12:34:00,
2013-05-15 13:04:00,51.0,36.0,30.22,SSW,213,1.0,4.0,56,0.00,,,0.00,,2013-05-15 13:04:00,
2013-05-15 13:12:00,51.0,36.0,30.22,SSW,213,1.0,4.0,56,0.00,,,0.00,,2013-05-15 13:12:00,
2013-05-15 13:23:00,51.0,36.0,30.23,SSE,148,4.0,6.0,57,0.00,,,0.00,,2013-05-15 13:23:00,
2013-05-15 13:34:00,53.0,35.0,30.22,South,174,5.0,8.0,51,0.00,,,0.00,,2013-05-15 13:34:00,
2013-05-15 13:43:00,53.0,35.0,30.22,South,174,5.0,8.0,51,0.00,,,0.00,,2013-05-15 13:43:00,
2013-05-15 13:53:00,55.0,36.0,30.23,SSW,194,4.0,8.0,49,0.00,,,0.00,,2013-05-15 13:53:00,
2013-05-15 14:02:00,56.0,35.0,30.23,SSE,149,4.0,8.0,45,0.00,,,0.00,,2013-05-15 14:02:00,
2013-05-15 14:23:00,57.0,35.0,30.23,SSE,167,3.0,7.0,44,0.00,,,0.00,,2013-05-15 14:23:00,
2013-05-15 14:34:00,60.0,36.0,30.23,SSW,192,4.0,9.0,40,0.00,,,0.00,,2013-05-15 14:34:00,
2013-05-15 14:42:00,60.0,36.0,30.23,SSW,192,4.0,9.0,40,0.00,,,0.00,,2013-05-15 14:42:00,
2013-05-15 14:52:00,62.0,35.0,30.23,SSE,167,1.0,7.0,37,0.00,,,0.00,,2013-05-15 14:52:00,
2013-05-15 15:04:00,64.0,36.0,30.23,SE,134,4.0,8.0,35,0.00,,,0.00,,2013-05-15 15:04:00,
2013-05-15 15:35:00,65.0,37.0,30.22,ESE,121,3.0,7.0,35,0.00,,,0.00,,2013-05-15 15:35:00,
2013-05-15 15:43:00,65.0,37.0,30.22,ESE,121,3.0,7.0,35,0.00,,,0.00,,2013-05-15 15:43:00,
2013-05-15 16:04:00,68.0,35.0,30.22,SSW,194,4.0,10.0,30,0.00,,,0.00,,2013-05-15 16:04:00,
2013-05-15 16:34:00,70.0,35.0,30.22,WNW,293,0.0,8.0,28,0.00,,,0.00,,2013-05-15 16:34:00,
2013-05-15 16:43:00,70.0,35.0,30.22,WNW,293,0.0,8.0,28,0.00,,,0.00,,2013-05-15 16:43:00,
2013-05-15 16:52:00,71.0,35.0,30.22,West,259,2.0,8.0,27,0.00,,,0.00,,2013-05-15 16:52:00,
2013-05-15 17:05:00,71.0,35.0,30.21,NNE,13,10.0,16.0,27,0.00,,,0.00,,2013-05-15 17:05:00,
2013-05-15 17:24:00,70.0,35.0,30.21,NNW,344,11.0,24.0,28,0.00,,,0.00,,2013-05-15 17:24:00,
2013-05-15 17:33:00,70.0,34.0,30.21,West,278,5.0,9.0,27,0.00,,,0.00,,2013-05-15 17:33:00,
2013-05-15 17:43:00,70.0,34.0,30.21,West,278,5.0,9.0,27,0.00,,,0.00,,2013-05-15 17:43:00,
2013-05-15 17:53:00,71.0,33.0,30.20,NW,309,1.0,10.0,25,0.00,,,0.00,,2013-05-15 17:53:00,
2013-05-15 18:03:00,72.0,34.0,30.20,North,350,4.0,10.0,25,0.00,,,0.00,,2013-05-15 18:03:00,
2013-05-15 18:12:00,72.0,34.0,30.20,North,350,4.0,10.0,25,0.00,,,0.00,,2013-05-15 18:12:00,
2013-05-15 18:24:00,69.0,39.0,30.20,NNW,335,6.0,15.0,34,0.00,,,0.00,,2013-05-15 18:24:00,
2013-05-15 18:35:00,62.0,47.0,30.20,North,5,4.0,12.0,57,0.03,,,0.03,,2013-05-15 18:35:00,
2013-05-15 18:43:00,62.0,47.0,30.20,North,5,4.0,12.0,57,0.03,,,0.03,,2013-05-15 18:43:00,
2013-05-15 19:34:00,66.0,44.0,30.18,ENE,71,2.0,9.0,45,0.00,,,0.04,,2013-05-15 19:34:00,
2013-05-15 19:43:00,66.0,44.0,30.18,ENE,71,2.0,9.0,45,0.00,,,0.04,,2013-05-15 19:43:00,
2013-05-15 19:53:00,65.0,39.0,30.18,SSW,196,4.0,14.0,38,0.00,,,0.04,,2013-05-15 19:53:00,
2013-05-15 20:03:00,62.0,37.0,30.18,SE,127,9.0,15.0,40,0.00,,,0.04,,2013-05-15 20:03:00,
2013-05-15 20:32:00,62.0,40.0,30.17,SE,129,6.0,18.0,45,0.00,,,0.04,,2013-05-15 20:32:00,
2013-05-15 20:43:00,62.0,40.0,30.17,SE,129,6.0,18.0,45,0.00,,,0.04,,2013-05-15 20:43:00,
2013-05-15 20:52:00,63.0,40.0,30.17,South,171,4.0,8.0,43,0.00,,,0.04,,2013-05-15 20:52:00,
2013-05-15 21:03:00,63.0,39.0,30.17,SE,142,9.0,18.0,41,0.00,,,0.04,,2013-05-15 21:03:00,
2013-05-15 21:13:00,63.0,39.0,30.17,SE,142,9.0,18.0,41,0.00,,,0.04,,2013-05-15 21:13:00,
2013-05-15 21:37:00,61.0,38.0,30.18,West,263,6.0,12.0,42,0.00,,,0.04,,2013-05-15 21:37:00,
2013-05-15 21:44:00,61.0,38.0,30.18,West,263,6.0,12.0,42,0.00,,,0.04,,2013-05-15 21:44:00,
2013-05-15 21:54:00,61.0,37.0,30.17,SSE,154,6.0,15.0,41,0.00,,,0.04,,2013-05-15 21:54:00,
2013-05-15 22:05:00,64.0,39.0,30.16,SSW,194,4.0,9.0,39,0.00,,,0.04,,2013-05-15 22:05:00,
2013-05-15 22:15:00,64.0,39.0,30.16,SSW,194,4.0,9.0,39,0.00,,,0.04,,2013-05-15 22:15:00,
2013-05-15 22:26:00,65.0,39.0,30.16,SE,146,3.0,6.0,38,0.00,,,0.04,,2013-05-15 22:26:00,
2013-05-15 22:34:00,65.0,39.0,30.16,SE,146,3.0,6.0,38,0.00,,,0.04,,2013-05-15 22:34:00,
2013-05-15 22:44:00,65.0,39.0,30.16,SE,146,3.0,6.0,38,0.00,,,0.04,,2013-05-15 22:44:00,
2013-05-15 22:53:00,65.0,35.0,30.15,South,186,5.0,12.0,33,0.00,,,0.04,,2013-05-15 22:53:00,
2013-05-15 23:06:00,66.0,37.0,30.15,SE,131,3.0,10.0,34,0.00,,,0.04,,2013-05-15 23:06:00,
2013-05-15 23:14:00,66.0,37.0,30.15,SE,131,3.0,10.0,34,0.00,,,0.04,,2013-05-15 23:14:00,
2013-05-15 23:23:00,67.0,38.0,30.14,East,101,0.0,8.0,34,0.00,,,0.04,,2013-05-15 23:23:00,
2013-05-15 23:35:00,68.0,37.0,30.14,NE,36,0.0,10.0,32,0.00,,,0.04,,2013-05-15 23:35:00,
2013-05-15 23:43:00,68.0,37.0,30.14,NE,36,0.0,10.0,32,0.00,,,0.04,,2013-05-15 23:43:00,